Strona główna
Zdjęcia satelitarne 15-dni prognozyKlimatMeteorologia morska Cyklony Błyskawica LotniskoFAQ Gazetka O
Pogoda : Europa Afryka Ameryka Północna Ameryka Południowa Azja Australia-Oceania Inny
Języki Kontakt

Albert, Francja

Albert-Picardie

Szerokość geograficzna: 49-58-21N, Długość geograficzna: 002-41-29E, wysokość: 111 m


METAR: LFAQ 221830Z AUTO 35010KT 9999 NSC 20/16 Q1019
short-TAF: LFAQ 220800Z 2209/2218 35010KT 6000 OVC006 BECMG 2210/2213 BKN013 BECMG 2213/2215 BKN020
long-TAF: przestarzały (50641 godziny)

czas: 20:57 (18:57 UTC)

Aktualna obserwacja pogody

Raport powstał 27 minut temu, godzina 18:30 UTC  
Wiatr 10 kt od północ
Temperatura 20°C
Wilgotność 78%
Ciśnienie 1019 hPa
Widzialność 10 km lub więcej

Jednostka miary

Prognoza

Raport powstał 10 godziny i 42 minut temu, godzina 08:15 UTC  
Prognoza ważna od 22 godzina 09 UTC do 22 godzina 18 UTC
Wiatr 10 kt od północ
Widzialność 6000 m
Zachmurzenie całkowite na wysokości 600 ft
Stopniowe zmiany
od 22 godzina 10 UTC do 22 godzina 13 UTC
Przerywane chmury na wysokości 1300 ft
Stopniowe zmiany
od 22 godzina 13 UTC do 22 godzina 15 UTC
Przerywane chmury na wysokości 2000 ft
Informacje na tej stronie internetowej podlegają klauzuli o wyłączeniu odpowiedzialności
Pogoda : Europa Afryka Ameryka Północna Ameryka Południowa Azja Australia-Oceania Inny
Zdjęcia satelitarne 15-dni prognozyKlimatMeteorologia morska Cyklony Błyskawica LotniskoFAQ Języki Kontakt Gazetka O